<?xml version="1.0" encoding="UTF-8" standalone="no" ?>
<gpx xmlns="http://www.topografix.com/GPX/1/1" xmlns:xsi="http://www.w3.org/2001/XMLSchema-instance" xsi:schemaLocation="http://www.topografix.com/GPX/1/1 http://www.topografix.com/GPX/1/1/gpx.xsd" version="1.1" creator="VisuGPX - https://www.visugpx.com">
  <metadata>
    <name>15525762-PAT YZERON</name>
  </metadata>
  <trk>
    <name><![CDATA[15525762-PAT YZERON]]></name>
    <trkseg>
      <trkpt lat="45.70913" lon="4.58277">
        <ele>715</ele>
        <time>2022-09-10T14:53:50Z</time>
      </trkpt>
      <trkpt lat="45.70893" lon="4.58344">
        <ele>712</ele>
        <time>2022-09-10T14:54:58Z</time>
      </trkpt>
      <trkpt lat="45.70865" lon="4.58448">
        <ele>709</ele>
        <time>2022-09-10T14:56:42Z</time>
      </trkpt>
      <trkpt lat="45.70825" lon="4.58416">
        <ele>704</ele>
        <time>2022-09-10T14:57:43Z</time>
      </trkpt>
      <trkpt lat="45.70811" lon="4.58414">
        <ele>705</ele>
        <time>2022-09-10T14:58:02Z</time>
      </trkpt>
      <trkpt lat="45.70808" lon="4.58398">
        <ele>706</ele>
        <time>2022-09-10T14:58:17Z</time>
      </trkpt>
      <trkpt lat="45.70786" lon="4.58386">
        <ele>708</ele>
        <time>2022-09-10T14:58:49Z</time>
      </trkpt>
      <trkpt lat="45.70767" lon="4.58385">
        <ele>710</ele>
        <time>2022-09-10T14:59:14Z</time>
      </trkpt>
      <trkpt lat="45.70751" lon="4.58391">
        <ele>711</ele>
        <time>2022-09-10T14:59:36Z</time>
      </trkpt>
      <trkpt lat="45.70733" lon="4.584">
        <ele>713</ele>
        <time>2022-09-10T15:00:01Z</time>
      </trkpt>
      <trkpt lat="45.70726" lon="4.58409">
        <ele>714</ele>
        <time>2022-09-10T15:00:14Z</time>
      </trkpt>
      <trkpt lat="45.70724" lon="4.58423">
        <ele>714</ele>
        <time>2022-09-10T15:00:27Z</time>
      </trkpt>
      <trkpt lat="45.70717" lon="4.58442">
        <ele>714</ele>
        <time>2022-09-10T15:00:47Z</time>
      </trkpt>
      <trkpt lat="45.70697" lon="4.58463">
        <ele>716</ele>
        <time>2022-09-10T15:01:20Z</time>
      </trkpt>
      <trkpt lat="45.70677" lon="4.58508">
        <ele>717</ele>
        <time>2022-09-10T15:02:10Z</time>
      </trkpt>
      <trkpt lat="45.70679" lon="4.58522">
        <ele>717</ele>
        <time>2022-09-10T15:02:23Z</time>
      </trkpt>
      <trkpt lat="45.70681" lon="4.58534">
        <ele>717</ele>
        <time>2022-09-10T15:02:35Z</time>
      </trkpt>
      <trkpt lat="45.70688" lon="4.58652">
        <ele>719</ele>
        <time>2022-09-10T15:04:25Z</time>
      </trkpt>
      <trkpt lat="45.70663" lon="4.58655">
        <ele>722</ele>
        <time>2022-09-10T15:04:59Z</time>
      </trkpt>
      <trkpt lat="45.70661" lon="4.58666">
        <ele>722</ele>
        <time>2022-09-10T15:05:09Z</time>
      </trkpt>
      <trkpt lat="45.70663" lon="4.58686">
        <ele>723</ele>
        <time>2022-09-10T15:05:28Z</time>
      </trkpt>
      <trkpt lat="45.70666" lon="4.58745">
        <ele>725</ele>
        <time>2022-09-10T15:06:23Z</time>
      </trkpt>
      <trkpt lat="45.70664" lon="4.5877">
        <ele>725</ele>
        <time>2022-09-10T15:06:47Z</time>
      </trkpt>
      <trkpt lat="45.70657" lon="4.58793">
        <ele>725</ele>
        <time>2022-09-10T15:07:10Z</time>
      </trkpt>
      <trkpt lat="45.70634" lon="4.58833">
        <ele>722</ele>
        <time>2022-09-10T15:07:58Z</time>
      </trkpt>
      <trkpt lat="45.70625" lon="4.58874">
        <ele>721</ele>
        <time>2022-09-10T15:08:38Z</time>
      </trkpt>
      <trkpt lat="45.70623" lon="4.58906">
        <ele>720</ele>
        <time>2022-09-10T15:09:08Z</time>
      </trkpt>
      <trkpt lat="45.70637" lon="4.58961">
        <ele>722</ele>
        <time>2022-09-10T15:10:03Z</time>
      </trkpt>
      <trkpt lat="45.7064" lon="4.59018">
        <ele>723</ele>
        <time>2022-09-10T15:10:56Z</time>
      </trkpt>
      <trkpt lat="45.7063" lon="4.59102">
        <ele>724</ele>
        <time>2022-09-10T15:12:16Z</time>
      </trkpt>
      <trkpt lat="45.70621" lon="4.59137">
        <ele>725</ele>
        <time>2022-09-10T15:12:50Z</time>
      </trkpt>
      <trkpt lat="45.70612" lon="4.59153">
        <ele>725</ele>
        <time>2022-09-10T15:13:10Z</time>
      </trkpt>
      <trkpt lat="45.70549" lon="4.59258">
        <ele>727</ele>
        <time>2022-09-10T15:15:19Z</time>
      </trkpt>
      <trkpt lat="45.70496" lon="4.59296">
        <ele>729</ele>
        <time>2022-09-10T15:16:38Z</time>
      </trkpt>
      <trkpt lat="45.70459" lon="4.59318">
        <ele>728</ele>
        <time>2022-09-10T15:17:31Z</time>
      </trkpt>
      <trkpt lat="45.70456" lon="4.59327">
        <ele>729</ele>
        <time>2022-09-10T15:17:40Z</time>
      </trkpt>
      <trkpt lat="45.7043" lon="4.59399">
        <ele>732</ele>
        <time>2022-09-10T15:18:56Z</time>
      </trkpt>
      <trkpt lat="45.70403" lon="4.59482">
        <ele>739</ele>
        <time>2022-09-10T15:20:21Z</time>
      </trkpt>
      <trkpt lat="45.7039" lon="4.59548">
        <ele>745</ele>
        <time>2022-09-10T15:21:25Z</time>
      </trkpt>
      <trkpt lat="45.70388" lon="4.59578">
        <ele>749</ele>
        <time>2022-09-10T15:21:53Z</time>
      </trkpt>
      <trkpt lat="45.70376" lon="4.59594">
        <ele>750</ele>
        <time>2022-09-10T15:22:15Z</time>
      </trkpt>
      <trkpt lat="45.7036" lon="4.59625">
        <ele>755</ele>
        <time>2022-09-10T15:22:51Z</time>
      </trkpt>
      <trkpt lat="45.70324" lon="4.59682">
        <ele>763</ele>
        <time>2022-09-10T15:24:03Z</time>
      </trkpt>
      <trkpt lat="45.70312" lon="4.59716">
        <ele>766</ele>
        <time>2022-09-10T15:24:38Z</time>
      </trkpt>
      <trkpt lat="45.70304" lon="4.59759">
        <ele>773</ele>
        <time>2022-09-10T15:25:20Z</time>
      </trkpt>
      <trkpt lat="45.70283" lon="4.59843">
        <ele>783</ele>
        <time>2022-09-10T15:26:43Z</time>
      </trkpt>
      <trkpt lat="45.7028" lon="4.59893">
        <ele>790</ele>
        <time>2022-09-10T15:27:30Z</time>
      </trkpt>
      <trkpt lat="45.70263" lon="4.6">
        <ele>799</ele>
        <time>2022-09-10T15:29:12Z</time>
      </trkpt>
      <trkpt lat="45.70243" lon="4.60046">
        <ele>801</ele>
        <time>2022-09-10T15:30:02Z</time>
      </trkpt>
      <trkpt lat="45.70226" lon="4.60072">
        <ele>800</ele>
        <time>2022-09-10T15:30:36Z</time>
      </trkpt>
      <trkpt lat="45.70204" lon="4.60116">
        <ele>801</ele>
        <time>2022-09-10T15:31:26Z</time>
      </trkpt>
      <trkpt lat="45.70154" lon="4.6017">
        <ele>795</ele>
        <time>2022-09-10T15:32:50Z</time>
      </trkpt>
      <trkpt lat="45.7012" lon="4.60224">
        <ele>791</ele>
        <time>2022-09-10T15:33:57Z</time>
      </trkpt>
      <trkpt lat="45.70073" lon="4.60288">
        <ele>784</ele>
        <time>2022-09-10T15:35:24Z</time>
      </trkpt>
      <trkpt lat="45.70054" lon="4.60327">
        <ele>783</ele>
        <time>2022-09-10T15:36:08Z</time>
      </trkpt>
      <trkpt lat="45.70035" lon="4.60388">
        <ele>779</ele>
        <time>2022-09-10T15:37:10Z</time>
      </trkpt>
      <trkpt lat="45.70047" lon="4.60445">
        <ele>782</ele>
        <time>2022-09-10T15:38:06Z</time>
      </trkpt>
      <trkpt lat="45.70086" lon="4.60514">
        <ele>786</ele>
        <time>2022-09-10T15:39:29Z</time>
      </trkpt>
      <trkpt lat="45.70143" lon="4.60585">
        <ele>782</ele>
        <time>2022-09-10T15:41:09Z</time>
      </trkpt>
      <trkpt lat="45.70155" lon="4.60676">
        <ele>774</ele>
        <time>2022-09-10T15:42:36Z</time>
      </trkpt>
      <trkpt lat="45.70171" lon="4.60749">
        <ele>775</ele>
        <time>2022-09-10T15:43:47Z</time>
      </trkpt>
      <trkpt lat="45.70177" lon="4.60754">
        <ele>775</ele>
        <time>2022-09-10T15:43:56Z</time>
      </trkpt>
      <trkpt lat="45.7018" lon="4.60757">
        <ele>775</ele>
        <time>2022-09-10T15:44:01Z</time>
      </trkpt>
      <trkpt lat="45.70216" lon="4.60759">
        <ele>774</ele>
        <time>2022-09-10T15:44:49Z</time>
      </trkpt>
      <trkpt lat="45.70229" lon="4.60763">
        <ele>773</ele>
        <time>2022-09-10T15:45:07Z</time>
      </trkpt>
      <trkpt lat="45.70279" lon="4.6084">
        <ele>761</ele>
        <time>2022-09-10T15:46:45Z</time>
      </trkpt>
      <trkpt lat="45.70297" lon="4.60899">
        <ele>754</ele>
        <time>2022-09-10T15:47:45Z</time>
      </trkpt>
      <trkpt lat="45.70308" lon="4.61034">
        <ele>754</ele>
        <time>2022-09-10T15:49:52Z</time>
      </trkpt>
      <trkpt lat="45.70316" lon="4.6121">
        <ele>747</ele>
        <time>2022-09-10T15:52:36Z</time>
      </trkpt>
      <trkpt lat="45.70337" lon="4.61372">
        <ele>735</ele>
        <time>2022-09-10T15:55:10Z</time>
      </trkpt>
      <trkpt lat="45.70401" lon="4.6155">
        <ele>711</ele>
        <time>2022-09-10T15:58:16Z</time>
      </trkpt>
      <trkpt lat="45.70424" lon="4.61578">
        <ele>704</ele>
        <time>2022-09-10T15:58:57Z</time>
      </trkpt>
      <trkpt lat="45.70445" lon="4.61589">
        <ele>700</ele>
        <time>2022-09-10T15:59:26Z</time>
      </trkpt>
      <trkpt lat="45.70466" lon="4.61609">
        <ele>695</ele>
        <time>2022-09-10T16:00:00Z</time>
      </trkpt>
      <trkpt lat="45.70495" lon="4.61643">
        <ele>689</ele>
        <time>2022-09-10T16:00:50Z</time>
      </trkpt>
      <trkpt lat="45.70519" lon="4.61655">
        <ele>685</ele>
        <time>2022-09-10T16:01:24Z</time>
      </trkpt>
      <trkpt lat="45.70533" lon="4.61637">
        <ele>683</ele>
        <time>2022-09-10T16:01:49Z</time>
      </trkpt>
      <trkpt lat="45.70547" lon="4.61627">
        <ele>682</ele>
        <time>2022-09-10T16:02:10Z</time>
      </trkpt>
      <trkpt lat="45.70566" lon="4.6162">
        <ele>679</ele>
        <time>2022-09-10T16:02:36Z</time>
      </trkpt>
      <trkpt lat="45.70599" lon="4.6162">
        <ele>676</ele>
        <time>2022-09-10T16:03:20Z</time>
      </trkpt>
      <trkpt lat="45.70605" lon="4.61622">
        <ele>676</ele>
        <time>2022-09-10T16:03:28Z</time>
      </trkpt>
      <trkpt lat="45.70659" lon="4.61667">
        <ele>674</ele>
        <time>2022-09-10T16:04:52Z</time>
      </trkpt>
      <trkpt lat="45.70662" lon="4.61683">
        <ele>674</ele>
        <time>2022-09-10T16:05:07Z</time>
      </trkpt>
      <trkpt lat="45.70664" lon="4.61713">
        <ele>673</ele>
        <time>2022-09-10T16:05:35Z</time>
      </trkpt>
      <trkpt lat="45.70667" lon="4.61754">
        <ele>672</ele>
        <time>2022-09-10T16:06:14Z</time>
      </trkpt>
      <trkpt lat="45.70679" lon="4.61843">
        <ele>664</ele>
        <time>2022-09-10T16:07:38Z</time>
      </trkpt>
      <trkpt lat="45.70693" lon="4.61923">
        <ele>657</ele>
        <time>2022-09-10T16:08:55Z</time>
      </trkpt>
      <trkpt lat="45.70695" lon="4.61939">
        <ele>655</ele>
        <time>2022-09-10T16:09:10Z</time>
      </trkpt>
      <trkpt lat="45.7069" lon="4.61967">
        <ele>654</ele>
        <time>2022-09-10T16:09:37Z</time>
      </trkpt>
      <trkpt lat="45.70678" lon="4.62024">
        <ele>653</ele>
        <time>2022-09-10T16:10:33Z</time>
      </trkpt>
      <trkpt lat="45.70678" lon="4.62075">
        <ele>650</ele>
        <time>2022-09-10T16:11:20Z</time>
      </trkpt>
      <trkpt lat="45.70665" lon="4.62128">
        <ele>650</ele>
        <time>2022-09-10T16:12:12Z</time>
      </trkpt>
      <trkpt lat="45.7067" lon="4.62197">
        <ele>644</ele>
        <time>2022-09-10T16:13:17Z</time>
      </trkpt>
      <trkpt lat="45.70695" lon="4.62247">
        <ele>636</ele>
        <time>2022-09-10T16:14:14Z</time>
      </trkpt>
      <trkpt lat="45.70698" lon="4.62279">
        <ele>632</ele>
        <time>2022-09-10T16:14:45Z</time>
      </trkpt>
      <trkpt lat="45.7069" lon="4.6231">
        <ele>628</ele>
        <time>2022-09-10T16:15:15Z</time>
      </trkpt>
      <trkpt lat="45.70712" lon="4.62343">
        <ele>623</ele>
        <time>2022-09-10T16:15:58Z</time>
      </trkpt>
      <trkpt lat="45.7071" lon="4.62389">
        <ele>617</ele>
        <time>2022-09-10T16:16:41Z</time>
      </trkpt>
      <trkpt lat="45.70731" lon="4.62403">
        <ele>616</ele>
        <time>2022-09-10T16:17:12Z</time>
      </trkpt>
      <trkpt lat="45.70735" lon="4.62424">
        <ele>613</ele>
        <time>2022-09-10T16:17:32Z</time>
      </trkpt>
      <trkpt lat="45.70769" lon="4.62461">
        <ele>605</ele>
        <time>2022-09-10T16:18:29Z</time>
      </trkpt>
      <trkpt lat="45.70785" lon="4.62451">
        <ele>602</ele>
        <time>2022-09-10T16:18:52Z</time>
      </trkpt>
      <trkpt lat="45.70802" lon="4.62408">
        <ele>600</ele>
        <time>2022-09-10T16:19:38Z</time>
      </trkpt>
      <trkpt lat="45.70809" lon="4.62405">
        <ele>598</ele>
        <time>2022-09-10T16:19:48Z</time>
      </trkpt>
      <trkpt lat="45.70816" lon="4.62418">
        <ele>596</ele>
        <time>2022-09-10T16:20:03Z</time>
      </trkpt>
      <trkpt lat="45.70824" lon="4.62478">
        <ele>593</ele>
        <time>2022-09-10T16:21:00Z</time>
      </trkpt>
      <trkpt lat="45.7084" lon="4.62503">
        <ele>589</ele>
        <time>2022-09-10T16:21:32Z</time>
      </trkpt>
      <trkpt lat="45.70872" lon="4.62445">
        <ele>581</ele>
        <time>2022-09-10T16:22:41Z</time>
      </trkpt>
      <trkpt lat="45.70879" lon="4.62439">
        <ele>579</ele>
        <time>2022-09-10T16:22:52Z</time>
      </trkpt>
      <trkpt lat="45.70889" lon="4.62436">
        <ele>577</ele>
        <time>2022-09-10T16:23:05Z</time>
      </trkpt>
      <trkpt lat="45.7093" lon="4.62441">
        <ele>566</ele>
        <time>2022-09-10T16:24:00Z</time>
      </trkpt>
      <trkpt lat="45.70958" lon="4.62451">
        <ele>560</ele>
        <time>2022-09-10T16:24:39Z</time>
      </trkpt>
      <trkpt lat="45.71018" lon="4.6248">
        <ele>549</ele>
        <time>2022-09-10T16:26:03Z</time>
      </trkpt>
      <trkpt lat="45.71033" lon="4.62492">
        <ele>548</ele>
        <time>2022-09-10T16:26:26Z</time>
      </trkpt>
      <trkpt lat="45.71059" lon="4.62502">
        <ele>543</ele>
        <time>2022-09-10T16:27:02Z</time>
      </trkpt>
      <trkpt lat="45.71089" lon="4.62502">
        <ele>536</ele>
        <time>2022-09-10T16:27:42Z</time>
      </trkpt>
      <trkpt lat="45.71105" lon="4.62499">
        <ele>532</ele>
        <time>2022-09-10T16:28:04Z</time>
      </trkpt>
      <trkpt lat="45.71133" lon="4.62495">
        <ele>526</ele>
        <time>2022-09-10T16:28:41Z</time>
      </trkpt>
      <trkpt lat="45.71112" lon="4.62478">
        <ele>527</ele>
        <time>2022-09-10T16:29:13Z</time>
      </trkpt>
      <trkpt lat="45.71051" lon="4.62395">
        <ele>524</ele>
        <time>2022-09-10T16:31:06Z</time>
      </trkpt>
      <trkpt lat="45.70999" lon="4.62337">
        <ele>534</ele>
        <time>2022-09-10T16:32:34Z</time>
      </trkpt>
      <trkpt lat="45.70986" lon="4.62312">
        <ele>537</ele>
        <time>2022-09-10T16:33:03Z</time>
      </trkpt>
      <trkpt lat="45.70975" lon="4.62276">
        <ele>540</ele>
        <time>2022-09-10T16:33:39Z</time>
      </trkpt>
      <trkpt lat="45.70969" lon="4.62214">
        <ele>543</ele>
        <time>2022-09-10T16:34:38Z</time>
      </trkpt>
      <trkpt lat="45.70968" lon="4.62181">
        <ele>544</ele>
        <time>2022-09-10T16:35:08Z</time>
      </trkpt>
      <trkpt lat="45.7097" lon="4.62155">
        <ele>544</ele>
        <time>2022-09-10T16:35:33Z</time>
      </trkpt>
      <trkpt lat="45.7098" lon="4.62131">
        <ele>541</ele>
        <time>2022-09-10T16:35:59Z</time>
      </trkpt>
      <trkpt lat="45.71" lon="4.62057">
        <ele>538</ele>
        <time>2022-09-10T16:37:13Z</time>
      </trkpt>
      <trkpt lat="45.71022" lon="4.62013">
        <ele>533</ele>
        <time>2022-09-10T16:38:03Z</time>
      </trkpt>
      <trkpt lat="45.7104" lon="4.61959">
        <ele>530</ele>
        <time>2022-09-10T16:38:59Z</time>
      </trkpt>
      <trkpt lat="45.71053" lon="4.61877">
        <ele>528</ele>
        <time>2022-09-10T16:40:17Z</time>
      </trkpt>
      <trkpt lat="45.7105" lon="4.61851">
        <ele>529</ele>
        <time>2022-09-10T16:40:42Z</time>
      </trkpt>
      <trkpt lat="45.71054" lon="4.6182">
        <ele>527</ele>
        <time>2022-09-10T16:41:11Z</time>
      </trkpt>
      <trkpt lat="45.71054" lon="4.61728">
        <ele>528</ele>
        <time>2022-09-10T16:42:37Z</time>
      </trkpt>
      <trkpt lat="45.71048" lon="4.61705">
        <ele>531</ele>
        <time>2022-09-10T16:43:00Z</time>
      </trkpt>
      <trkpt lat="45.71043" lon="4.6167">
        <ele>533</ele>
        <time>2022-09-10T16:43:33Z</time>
      </trkpt>
      <trkpt lat="45.71048" lon="4.61643">
        <ele>531</ele>
        <time>2022-09-10T16:43:59Z</time>
      </trkpt>
      <trkpt lat="45.71057" lon="4.6162">
        <ele>528</ele>
        <time>2022-09-10T16:44:24Z</time>
      </trkpt>
      <trkpt lat="45.71065" lon="4.61584">
        <ele>526</ele>
        <time>2022-09-10T16:44:59Z</time>
      </trkpt>
      <trkpt lat="45.71063" lon="4.61492">
        <ele>525</ele>
        <time>2022-09-10T16:46:25Z</time>
      </trkpt>
      <trkpt lat="45.71044" lon="4.61416">
        <ele>525</ele>
        <time>2022-09-10T16:47:40Z</time>
      </trkpt>
      <trkpt lat="45.71024" lon="4.61364">
        <ele>529</ele>
        <time>2022-09-10T16:48:35Z</time>
      </trkpt>
      <trkpt lat="45.71016" lon="4.61334">
        <ele>531</ele>
        <time>2022-09-10T16:49:05Z</time>
      </trkpt>
      <trkpt lat="45.71028" lon="4.61311">
        <ele>531</ele>
        <time>2022-09-10T16:49:32Z</time>
      </trkpt>
      <trkpt lat="45.71079" lon="4.6125">
        <ele>525</ele>
        <time>2022-09-10T16:51:01Z</time>
      </trkpt>
      <trkpt lat="45.7109" lon="4.61223">
        <ele>524</ele>
        <time>2022-09-10T16:51:30Z</time>
      </trkpt>
      <trkpt lat="45.71096" lon="4.61195">
        <ele>524</ele>
        <time>2022-09-10T16:51:57Z</time>
      </trkpt>
      <trkpt lat="45.71096" lon="4.61166">
        <ele>526</ele>
        <time>2022-09-10T16:52:24Z</time>
      </trkpt>
      <trkpt lat="45.71091" lon="4.61139">
        <ele>527</ele>
        <time>2022-09-10T16:52:50Z</time>
      </trkpt>
      <trkpt lat="45.71093" lon="4.6111">
        <ele>525</ele>
        <time>2022-09-10T16:53:17Z</time>
      </trkpt>
      <trkpt lat="45.71083" lon="4.61056">
        <ele>525</ele>
        <time>2022-09-10T16:54:09Z</time>
      </trkpt>
      <trkpt lat="45.71066" lon="4.61012">
        <ele>530</ele>
        <time>2022-09-10T16:54:56Z</time>
      </trkpt>
      <trkpt lat="45.71114" lon="4.60875">
        <ele>532</ele>
        <time>2022-09-10T16:57:19Z</time>
      </trkpt>
      <trkpt lat="45.71119" lon="4.60862">
        <ele>533</ele>
        <time>2022-09-10T16:57:33Z</time>
      </trkpt>
      <trkpt lat="45.71129" lon="4.6086">
        <ele>531</ele>
        <time>2022-09-10T16:57:46Z</time>
      </trkpt>
      <trkpt lat="45.71134" lon="4.60863">
        <ele>529</ele>
        <time>2022-09-10T16:57:53Z</time>
      </trkpt>
      <trkpt lat="45.71151" lon="4.60879">
        <ele>523</ele>
        <time>2022-09-10T16:58:21Z</time>
      </trkpt>
      <trkpt lat="45.7116" lon="4.6086">
        <ele>523</ele>
        <time>2022-09-10T16:58:42Z</time>
      </trkpt>
      <trkpt lat="45.71163" lon="4.60839">
        <ele>524</ele>
        <time>2022-09-10T16:59:02Z</time>
      </trkpt>
      <trkpt lat="45.71162" lon="4.60801">
        <ele>528</ele>
        <time>2022-09-10T16:59:37Z</time>
      </trkpt>
      <trkpt lat="45.71189" lon="4.60604">
        <ele>533</ele>
        <time>2022-09-10T17:02:45Z</time>
      </trkpt>
      <trkpt lat="45.71193" lon="4.60556">
        <ele>538</ele>
        <time>2022-09-10T17:03:30Z</time>
      </trkpt>
      <trkpt lat="45.71231" lon="4.60417">
        <ele>531</ele>
        <time>2022-09-10T17:05:49Z</time>
      </trkpt>
      <trkpt lat="45.71247" lon="4.60282">
        <ele>522</ele>
        <time>2022-09-10T17:07:56Z</time>
      </trkpt>
      <trkpt lat="45.71236" lon="4.60245">
        <ele>527</ele>
        <time>2022-09-10T17:08:34Z</time>
      </trkpt>
      <trkpt lat="45.7122" lon="4.60206">
        <ele>531</ele>
        <time>2022-09-10T17:09:16Z</time>
      </trkpt>
      <trkpt lat="45.71207" lon="4.60152">
        <ele>531</ele>
        <time>2022-09-10T17:10:09Z</time>
      </trkpt>
      <trkpt lat="45.71173" lon="4.60087">
        <ele>533</ele>
        <time>2022-09-10T17:11:25Z</time>
      </trkpt>
      <trkpt lat="45.71152" lon="4.60068">
        <ele>537</ele>
        <time>2022-09-10T17:11:58Z</time>
      </trkpt>
      <trkpt lat="45.71126" lon="4.60036">
        <ele>543</ele>
        <time>2022-09-10T17:12:44Z</time>
      </trkpt>
      <trkpt lat="45.71134" lon="4.60047">
        <ele>542</ele>
        <time>2022-09-10T17:12:58Z</time>
      </trkpt>
      <trkpt lat="45.71135" lon="4.60021">
        <ele>538</ele>
        <time>2022-09-10T17:13:23Z</time>
      </trkpt>
      <trkpt lat="45.71132" lon="4.59994">
        <ele>536</ele>
        <time>2022-09-10T17:13:48Z</time>
      </trkpt>
      <trkpt lat="45.71142" lon="4.59966">
        <ele>533</ele>
        <time>2022-09-10T17:14:17Z</time>
      </trkpt>
      <trkpt lat="45.71154" lon="4.59951">
        <ele>532</ele>
        <time>2022-09-10T17:14:39Z</time>
      </trkpt>
      <trkpt lat="45.71157" lon="4.59949">
        <ele>532</ele>
        <time>2022-09-10T17:14:43Z</time>
      </trkpt>
      <trkpt lat="45.71163" lon="4.59948">
        <ele>531</ele>
        <time>2022-09-10T17:14:51Z</time>
      </trkpt>
      <trkpt lat="45.71183" lon="4.5996">
        <ele>533</ele>
        <time>2022-09-10T17:15:20Z</time>
      </trkpt>
      <trkpt lat="45.71214" lon="4.59973">
        <ele>536</ele>
        <time>2022-09-10T17:16:03Z</time>
      </trkpt>
      <trkpt lat="45.71237" lon="4.59986">
        <ele>536</ele>
        <time>2022-09-10T17:16:36Z</time>
      </trkpt>
      <trkpt lat="45.71254" lon="4.60002">
        <ele>534</ele>
        <time>2022-09-10T17:17:03Z</time>
      </trkpt>
      <trkpt lat="45.71299" lon="4.6006">
        <ele>540</ele>
        <time>2022-09-10T17:18:24Z</time>
      </trkpt>
      <trkpt lat="45.71331" lon="4.60122">
        <ele>537</ele>
        <time>2022-09-10T17:19:36Z</time>
      </trkpt>
      <trkpt lat="45.71345" lon="4.60189">
        <ele>531</ele>
        <time>2022-09-10T17:20:41Z</time>
      </trkpt>
      <trkpt lat="45.71344" lon="4.60223">
        <ele>527</ele>
        <time>2022-09-10T17:21:13Z</time>
      </trkpt>
      <trkpt lat="45.71347" lon="4.60242">
        <ele>526</ele>
        <time>2022-09-10T17:21:31Z</time>
      </trkpt>
      <trkpt lat="45.71358" lon="4.60258">
        <ele>528</ele>
        <time>2022-09-10T17:21:52Z</time>
      </trkpt>
      <trkpt lat="45.71375" lon="4.60264">
        <ele>534</ele>
        <time>2022-09-10T17:22:15Z</time>
      </trkpt>
      <trkpt lat="45.71437" lon="4.60312">
        <ele>542</ele>
        <time>2022-09-10T17:23:49Z</time>
      </trkpt>
      <trkpt lat="45.71447" lon="4.60316">
        <ele>541</ele>
        <time>2022-09-10T17:24:03Z</time>
      </trkpt>
      <trkpt lat="45.71454" lon="4.60315">
        <ele>542</ele>
        <time>2022-09-10T17:24:13Z</time>
      </trkpt>
      <trkpt lat="45.71508" lon="4.60288">
        <ele>551</ele>
        <time>2022-09-10T17:25:29Z</time>
      </trkpt>
      <trkpt lat="45.71553" lon="4.60253">
        <ele>554</ele>
        <time>2022-09-10T17:26:37Z</time>
      </trkpt>
      <trkpt lat="45.71554" lon="4.60252">
        <ele>554</ele>
        <time>2022-09-10T17:26:39Z</time>
      </trkpt>
      <trkpt lat="45.71479" lon="4.60267">
        <ele>557</ele>
        <time>2022-09-10T17:28:20Z</time>
      </trkpt>
      <trkpt lat="45.71462" lon="4.60256">
        <ele>557</ele>
        <time>2022-09-10T17:28:45Z</time>
      </trkpt>
      <trkpt lat="45.7145" lon="4.60206">
        <ele>566</ele>
        <time>2022-09-10T17:29:34Z</time>
      </trkpt>
      <trkpt lat="45.71436" lon="4.60179">
        <ele>568</ele>
        <time>2022-09-10T17:30:05Z</time>
      </trkpt>
      <trkpt lat="45.71409" lon="4.60137">
        <ele>567</ele>
        <time>2022-09-10T17:30:59Z</time>
      </trkpt>
      <trkpt lat="45.71375" lon="4.60067">
        <ele>567</ele>
        <time>2022-09-10T17:32:18Z</time>
      </trkpt>
      <trkpt lat="45.71349" lon="4.59991">
        <ele>575</ele>
        <time>2022-09-10T17:33:37Z</time>
      </trkpt>
      <trkpt lat="45.71336" lon="4.59973">
        <ele>575</ele>
        <time>2022-09-10T17:34:01Z</time>
      </trkpt>
      <trkpt lat="45.71319" lon="4.59932">
        <ele>580</ele>
        <time>2022-09-10T17:34:46Z</time>
      </trkpt>
      <trkpt lat="45.71295" lon="4.59883">
        <ele>586</ele>
        <time>2022-09-10T17:35:41Z</time>
      </trkpt>
      <trkpt lat="45.71262" lon="4.59857">
        <ele>583</ele>
        <time>2022-09-10T17:36:32Z</time>
      </trkpt>
      <trkpt lat="45.71176" lon="4.5975">
        <ele>578</ele>
        <time>2022-09-10T17:39:04Z</time>
      </trkpt>
      <trkpt lat="45.71174" lon="4.59721">
        <ele>579</ele>
        <time>2022-09-10T17:39:31Z</time>
      </trkpt>
      <trkpt lat="45.71176" lon="4.59685">
        <ele>581</ele>
        <time>2022-09-10T17:40:04Z</time>
      </trkpt>
      <trkpt lat="45.71186" lon="4.59635">
        <ele>590</ele>
        <time>2022-09-10T17:40:53Z</time>
      </trkpt>
      <trkpt lat="45.71181" lon="4.59605">
        <ele>593</ele>
        <time>2022-09-10T17:41:22Z</time>
      </trkpt>
      <trkpt lat="45.7117" lon="4.59584">
        <ele>594</ele>
        <time>2022-09-10T17:41:46Z</time>
      </trkpt>
      <trkpt lat="45.71118" lon="4.5957">
        <ele>593</ele>
        <time>2022-09-10T17:42:57Z</time>
      </trkpt>
      <trkpt lat="45.71083" lon="4.59541">
        <ele>597</ele>
        <time>2022-09-10T17:43:51Z</time>
      </trkpt>
      <trkpt lat="45.71053" lon="4.59469">
        <ele>606</ele>
        <time>2022-09-10T17:45:09Z</time>
      </trkpt>
      <trkpt lat="45.71045" lon="4.59437">
        <ele>610</ele>
        <time>2022-09-10T17:45:40Z</time>
      </trkpt>
      <trkpt lat="45.71044" lon="4.59406">
        <ele>617</ele>
        <time>2022-09-10T17:46:09Z</time>
      </trkpt>
      <trkpt lat="45.71038" lon="4.59372">
        <ele>624</ele>
        <time>2022-09-10T17:46:42Z</time>
      </trkpt>
      <trkpt lat="45.71021" lon="4.59318">
        <ele>634</ele>
        <time>2022-09-10T17:47:37Z</time>
      </trkpt>
      <trkpt lat="45.71015" lon="4.59319">
        <ele>632</ele>
        <time>2022-09-10T17:47:45Z</time>
      </trkpt>
      <trkpt lat="45.70982" lon="4.5934">
        <ele>624</ele>
        <time>2022-09-10T17:48:33Z</time>
      </trkpt>
      <trkpt lat="45.70921" lon="4.59366">
        <ele>624</ele>
        <time>2022-09-10T17:49:58Z</time>
      </trkpt>
      <trkpt lat="45.70919" lon="4.59362">
        <ele>625</ele>
        <time>2022-09-10T17:50:03Z</time>
      </trkpt>
      <trkpt lat="45.70898" lon="4.59366">
        <ele>627</ele>
        <time>2022-09-10T17:50:31Z</time>
      </trkpt>
      <trkpt lat="45.70819" lon="4.59363">
        <ele>643</ele>
        <time>2022-09-10T17:52:17Z</time>
      </trkpt>
      <trkpt lat="45.70805" lon="4.59367">
        <ele>645</ele>
        <time>2022-09-10T17:52:36Z</time>
      </trkpt>
      <trkpt lat="45.70789" lon="4.59378">
        <ele>646</ele>
        <time>2022-09-10T17:52:59Z</time>
      </trkpt>
      <trkpt lat="45.70768" lon="4.59403">
        <ele>646</ele>
        <time>2022-09-10T17:53:36Z</time>
      </trkpt>
      <trkpt lat="45.70756" lon="4.59415">
        <ele>648</ele>
        <time>2022-09-10T17:53:55Z</time>
      </trkpt>
      <trkpt lat="45.70737" lon="4.59426">
        <ele>651</ele>
        <time>2022-09-10T17:54:23Z</time>
      </trkpt>
      <trkpt lat="45.70694" lon="4.59443">
        <ele>662</ele>
        <time>2022-09-10T17:55:22Z</time>
      </trkpt>
      <trkpt lat="45.70691" lon="4.59442">
        <ele>662</ele>
        <time>2022-09-10T17:55:26Z</time>
      </trkpt>
      <trkpt lat="45.70686" lon="4.59437">
        <ele>664</ele>
        <time>2022-09-10T17:55:35Z</time>
      </trkpt>
      <trkpt lat="45.70687" lon="4.59427">
        <ele>665</ele>
        <time>2022-09-10T17:55:44Z</time>
      </trkpt>
      <trkpt lat="45.70696" lon="4.59396">
        <ele>668</ele>
        <time>2022-09-10T17:56:15Z</time>
      </trkpt>
      <trkpt lat="45.70709" lon="4.59349">
        <ele>674</ele>
        <time>2022-09-10T17:57:02Z</time>
      </trkpt>
      <trkpt lat="45.70717" lon="4.59305">
        <ele>682</ele>
        <time>2022-09-10T17:57:45Z</time>
      </trkpt>
      <trkpt lat="45.70742" lon="4.59232">
        <ele>692</ele>
        <time>2022-09-10T17:59:01Z</time>
      </trkpt>
      <trkpt lat="45.70752" lon="4.59216">
        <ele>693</ele>
        <time>2022-09-10T17:59:21Z</time>
      </trkpt>
      <trkpt lat="45.70766" lon="4.59209">
        <ele>695</ele>
        <time>2022-09-10T17:59:40Z</time>
      </trkpt>
      <trkpt lat="45.70795" lon="4.59209">
        <ele>694</ele>
        <time>2022-09-10T18:00:19Z</time>
      </trkpt>
      <trkpt lat="45.70814" lon="4.59206">
        <ele>695</ele>
        <time>2022-09-10T18:00:45Z</time>
      </trkpt>
      <trkpt lat="45.70874" lon="4.59179">
        <ele>693</ele>
        <time>2022-09-10T18:02:08Z</time>
      </trkpt>
      <trkpt lat="45.70882" lon="4.59168">
        <ele>693</ele>
        <time>2022-09-10T18:02:23Z</time>
      </trkpt>
      <trkpt lat="45.70883" lon="4.59151">
        <ele>694</ele>
        <time>2022-09-10T18:02:39Z</time>
      </trkpt>
      <trkpt lat="45.70876" lon="4.59116">
        <ele>696</ele>
        <time>2022-09-10T18:03:13Z</time>
      </trkpt>
      <trkpt lat="45.70868" lon="4.59095">
        <ele>698</ele>
        <time>2022-09-10T18:03:35Z</time>
      </trkpt>
      <trkpt lat="45.7086" lon="4.59082">
        <ele>700</ele>
        <time>2022-09-10T18:03:52Z</time>
      </trkpt>
      <trkpt lat="45.70853" lon="4.5907">
        <ele>701</ele>
        <time>2022-09-10T18:04:06Z</time>
      </trkpt>
      <trkpt lat="45.7084" lon="4.59039">
        <ele>702</ele>
        <time>2022-09-10T18:04:40Z</time>
      </trkpt>
      <trkpt lat="45.70837" lon="4.59031">
        <ele>701</ele>
        <time>2022-09-10T18:04:48Z</time>
      </trkpt>
      <trkpt lat="45.70827" lon="4.59027">
        <ele>702</ele>
        <time>2022-09-10T18:05:02Z</time>
      </trkpt>
      <trkpt lat="45.70823" lon="4.59021">
        <ele>702</ele>
        <time>2022-09-10T18:05:10Z</time>
      </trkpt>
      <trkpt lat="45.7082" lon="4.58999">
        <ele>701</ele>
        <time>2022-09-10T18:05:31Z</time>
      </trkpt>
      <trkpt lat="45.70796" lon="4.5896">
        <ele>704</ele>
        <time>2022-09-10T18:06:19Z</time>
      </trkpt>
      <trkpt lat="45.70788" lon="4.58935">
        <ele>704</ele>
        <time>2022-09-10T18:06:45Z</time>
      </trkpt>
      <trkpt lat="45.70787" lon="4.58923">
        <ele>704</ele>
        <time>2022-09-10T18:06:56Z</time>
      </trkpt>
      <trkpt lat="45.70788" lon="4.58917">
        <ele>704</ele>
        <time>2022-09-10T18:07:02Z</time>
      </trkpt>
      <trkpt lat="45.70791" lon="4.58915">
        <ele>704</ele>
        <time>2022-09-10T18:07:06Z</time>
      </trkpt>
      <trkpt lat="45.708" lon="4.58911">
        <ele>703</ele>
        <time>2022-09-10T18:07:19Z</time>
      </trkpt>
      <trkpt lat="45.70806" lon="4.58908">
        <ele>702</ele>
        <time>2022-09-10T18:07:27Z</time>
      </trkpt>
      <trkpt lat="45.70802" lon="4.58882">
        <ele>703</ele>
        <time>2022-09-10T18:07:52Z</time>
      </trkpt>
      <trkpt lat="45.70803" lon="4.5886">
        <ele>703</ele>
        <time>2022-09-10T18:08:13Z</time>
      </trkpt>
      <trkpt lat="45.70813" lon="4.58755">
        <ele>705</ele>
        <time>2022-09-10T18:09:51Z</time>
      </trkpt>
      <trkpt lat="45.7083" lon="4.58597">
        <ele>704</ele>
        <time>2022-09-10T18:12:20Z</time>
      </trkpt>
      <trkpt lat="45.70839" lon="4.58547">
        <ele>705</ele>
        <time>2022-09-10T18:13:08Z</time>
      </trkpt>
      <trkpt lat="45.70865" lon="4.58448">
        <ele>709</ele>
        <time>2022-09-10T18:14:47Z</time>
      </trkpt>
      <trkpt lat="45.70893" lon="4.58344">
        <ele>712</ele>
        <time>2022-09-10T18:16:31Z</time>
      </trkpt>
      <trkpt lat="45.70933" lon="4.58209">
        <ele>718</ele>
        <time>2022-09-10T18:18:48Z</time>
      </trkpt>
    </trkseg>
  </trk>
</gpx>